Terminal Aerodrome Forecast
Issued by NWS

Home | Current Version | Previous Version | Graphics & Text | Print | Product List | Glossary On
Versions: 1 2 3 4 5 6 7 8 9 10 11 12 13 14 15 16
025
FTUS43 KGRB 262334
TAFAUW
TAF
KAUW 262334Z 2700/2724 25006KT P6SM SCT100 SCT250
     FM270800 VRB03KT P6SM VCSH SCT070 BKN120
      TEMPO 2708/2712 5SM BR
     FM271200 29003KT P6SM VCSH SCT050 OVC100
     FM271900 36006KT P6SM VCSH BKN060 PROB30 2719/2724 4SM -SHRA
      BKN040=

USA.gov is the U.S. government's official web portal to all federal, state and local government web resources and services.